Ana Sayfa
METAR-TAF:

METAR-TAF

Havaalanları :

Córdoba, Arjantin

Enlem: 31-19S, Boylam: 064-13W, yükseklik: 484 m

Güncel hava durumu gözlemi

Rapor saat 23:00 UTC de 41 dakika önce yapıldı.
Rüzgar güneydan 12 kt
Sıcaklık 10°C
Nem 20%
Basınç 1024 hPa
Görüş mesafesi 10 km veya daha fazla
1500 m altında bulut yok ve kümülonimbus yok

METAR: SACO 222300Z 18012KT CAVOK 10/M12 Q1024 NOSIG

Saat: 20:41 (23:41 UTC)

Tahmin

Rapor saat 23:00 UTC de 41 dakika önce yapıldı.
Ayın 23'si saat 00 UTC'den ayın 24'si saat 00 UTC'ye kadar geçerli Tahmin
Rüzgar güneydan 10 kt
Görüş mesafesi 10 km veya daha fazla
1500 m altında bulut yok ve kümülonimbus yok
Dönüşüyor
ayın 23'si saat 14 UTC'den ayın 23'si saat 17 UTC'ye kadar
Rüzgar güneydoğudan 10 kt
Görüş mesafesi 10 km veya daha fazla
4500 ft yükseklikte parçalı bulutlu

TAF: SACO 222300Z 2300/2400 18010KT CAVOK TX12/2318Z TNM00/2310Z BECMG 2314/2317 14010KT 9999 SCT045

4.000'den fazla havaalanı için hava durumu gözlemleri ve tahminleri (METAR ve TAF raporları).

Kullanılabilir istasyonlar harita üzerinde sarı ve kırmızı noktalarla gösterilir.

İstasyonun adını görmek için fareyi noktanın üzerinde gezdirin.

Sonrasında hava gözlem ve tahminlerini görmek için tıklayın.

Haritayı değiştirmek için: yaklaştırmak için siyah artı işaretli yeşil düğmeye ve uzaklaştırmak için de eksi işaretli düğmeye hızla tıklayın; bitişik haritalar için yeşil okları kullanın.


METAR-TAF: